createdAt,value
2019-05-17T00:03:37.151Z,18.50
2019-05-17T00:05:57.179Z,17.20
2019-05-17T00:08:29.810Z,17.83
2019-05-17T00:10:38.884Z,18.30
2019-05-17T00:43:23.517Z,16.05
2019-05-17T00:45:43.430Z,17.50
2019-05-17T00:48:03.489Z,16.82
2019-05-17T00:50:23.643Z,15.78
2019-05-17T00:52:43.680Z,16.82
2019-05-17T00:55:06.773Z,16.00
2019-05-17T00:57:27.452Z,17.40
2019-05-17T00:59:47.731Z,17.48
2019-05-17T01:02:07.802Z,17.32
2019-05-17T01:04:27.726Z,17.12
2019-05-17T01:06:47.867Z,16.45
2019-05-17T01:09:08.159Z,17.40
2019-05-17T01:11:28.203Z,18.35
2019-05-17T01:13:48.208Z,16.30
2019-05-17T01:16:08.262Z,16.75
2019-05-17T01:18:28.185Z,15.55
2019-05-17T01:20:48.197Z,15.68
2019-05-17T01:23:08.188Z,17.67
2019-05-17T01:25:27.877Z,17.00
2019-05-17T01:30:08.994Z,14.40
2019-05-17T01:32:29.271Z,14.87
2019-05-17T01:34:49.271Z,15.70
2019-05-17T01:37:09.007Z,15.40
2019-05-17T01:39:29.263Z,16.40
2019-05-17T01:41:49.386Z,15.60
2019-05-17T01:44:09.103Z,15.60
2019-05-17T01:46:28.960Z,14.83
2019-05-17T01:48:49.033Z,15.03
2019-05-17T01:51:10.046Z,15.72
2019-05-17T01:53:29.822Z,14.23
2019-05-17T01:55:49.591Z,15.28
2019-05-17T01:58:09.586Z,15.90
2019-05-17T02:00:30.045Z,16.20
2019-05-17T02:02:52.042Z,15.03
2019-05-17T02:05:13.278Z,15.88
2019-05-17T02:07:33.799Z,17.98
2019-05-17T02:09:53.518Z,15.25
2019-05-17T02:12:13.407Z,16.17
2019-05-17T02:14:33.085Z,15.23
2019-05-17T02:21:32.563Z,16.10
2019-05-17T02:23:52.494Z,15.00
2019-05-17T02:26:13.475Z,15.03
2019-05-17T02:28:33.793Z,14.15
2019-05-17T02:33:14.954Z,14.60
2019-05-17T04:20:52.517Z,13.80
2019-05-17T04:25:33.381Z,12.85
2019-05-17T18:08:07.255Z,13.45
2019-05-17T18:10:29.972Z,12.55
2019-05-17T18:12:50.349Z,13.10
2019-05-17T18:15:11.472Z,11.83
2019-05-17T18:17:39.022Z,13.10
2019-05-17T18:22:26.500Z,12.25
2019-05-17T18:24:46.562Z,12.20
2019-05-17T18:27:06.888Z,12.75
2019-05-17T18:31:47.890Z,12.80
2019-05-17T18:36:28.896Z,13.65
2019-05-17T18:38:52.297Z,12.85
2019-05-17T21:20:29.467Z,13.40
2019-05-17T21:22:49.246Z,13.20
2019-05-17T21:25:09.554Z,13.20
2019-05-17T21:48:32.361Z,11.00
2019-05-17T21:50:52.270Z,10.10
2019-05-17T22:00:15.318Z,9.85
2019-05-17T23:38:18.848Z,10.20
2019-05-17T23:49:58.900Z,12.70
2019-05-17T23:56:59.112Z,11.80
